Time;durP1;ratioP1;P1;durP2;ratioP2;P2;SDS_P1;SDS_P2;PMS_P1;PMS_P2;Temp;Humidity;BMP_temperature;BMP_pressure;BME280_temperature;BME280_humidity;BME280_pressure;Samples;Min_cycle;Max_cycle;Signal;HPM_P1;HPM_P2
2021/05/27 00:01:10;;;;;;;17.30;15.60;;;9.70;99.90;;;;;;6309348;22;20430;-62
2021/05/27 00:03:39;;;;;;;21.40;15.70;;;9.70;99.90;;;;;;6305783;22;20420;-62
2021/05/27 00:06:06;;;;;;;22.03;16.33;;;9.70;99.90;;;;;;6311754;22;20408;-62
2021/05/27 00:08:32;;;;;;;17.27;15.67;;;9.70;99.90;;;;;;6312119;22;20416;-62
2021/05/27 00:11:02;;;;;;;17.07;15.37;;;9.70;99.90;;;;;;6311700;22;20416;-62
2021/05/27 00:13:29;;;;;;;17.37;15.47;;;9.70;99.90;;;;;;6312112;22;20454;-62
2021/05/27 00:15:58;;;;;;;17.40;15.50;;;9.70;99.90;;;;;;6311349;22;20451;-63
2021/05/27 00:18:26;;;;;;;17.87;16.07;;;9.70;99.90;;;;;;6311795;22;20420;-62
2021/05/27 00:20:52;;;;;;;17.20;15.40;;;9.70;99.90;;;;;;6312070;22;20424;-62
2021/05/27 00:23:19;;;;;;;17.30;15.50;;;9.70;99.90;;;;;;6311709;22;20416;-63
2021/05/27 00:25:45;;;;;;;17.67;15.00;;;9.70;99.90;;;;;;6312215;22;20423;-63
2021/05/27 00:28:12;;;;;;;19.03;17.03;;;9.70;99.90;;;;;;6310657;22;20412;-63
2021/05/27 00:30:39;;;;;;;19.30;16.73;;;9.70;99.90;;;;;;6311216;22;20699;-62
2021/05/27 00:33:06;;;;;;;25.50;16.97;;;9.80;99.90;;;;;;6311762;22;20423;-63
2021/05/27 00:35:35;;;;;;;18.53;15.97;;;9.80;99.90;;;;;;6311725;22;20416;-63
2021/05/27 00:38:02;;;;;;;19.50;17.60;;;9.80;99.90;;;;;;6311111;22;20412;-63
2021/05/27 00:40:28;;;;;;;18.77;16.97;;;9.80;99.90;;;;;;6311840;22;20408;-63
2021/05/27 00:42:57;;;;;;;22.07;18.57;;;9.90;99.90;;;;;;6311277;22;20415;-63
2021/05/27 00:45:24;;;;;;;20.53;18.43;;;9.80;99.90;;;;;;6311194;22;20418;-62
2021/05/27 00:47:53;;;;;;;20.37;18.27;;;9.80;99.90;;;;;;6311962;22;20382;-62
2021/05/27 00:50:22;;;;;;;20.87;17.60;;;9.80;99.90;;;;;;6311101;22;20415;-62
2021/05/27 00:52:50;;;;;;;24.70;19.13;;;9.80;99.90;;;;;;6311373;22;20389;-62
2021/05/27 00:55:19;;;;;;;21.10;18.47;;;9.80;99.90;;;;;;6311810;22;20569;-62
2021/05/27 00:57:45;;;;;;;24.97;18.40;;;9.80;99.90;;;;;;6311268;22;20546;-62
2021/05/27 01:00:14;;;;;;;22.53;20.10;;;9.80;99.90;;;;;;6310684;22;20420;-62
2021/05/27 01:02:41;;;;;;;21.63;19.30;;;9.80;99.90;;;;;;6311992;22;20416;-62
2021/05/27 01:39:31;;;;;;;18.07;15.53;;;9.90;99.90;;;;;;6292192;22;20507;-60
2021/05/27 01:41:57;;;;;;;17.67;15.87;;;9.90;99.90;;;;;;6311267;22;20471;-60
2021/05/27 01:44:24;;;;;;;19.67;16.17;;;9.90;99.90;;;;;;6311411;22;20685;-61
2021/05/27 01:46:51;;;;;;;16.07;13.30;;;9.90;99.90;;;;;;6311163;22;20419;-61
2021/05/27 01:49:17;;;;;;;14.87;13.27;;;9.90;99.90;;;;;;6310826;22;20412;-61
2021/05/27 01:51:49;;;;;;;14.63;12.83;;;9.90;99.90;;;;;;6311247;22;20420;-61
2021/05/27 01:54:16;;;;;;;16.43;13.27;;;9.90;99.90;;;;;;6311537;22;20840;-61
2021/05/27 01:56:44;;;;;;;12.93;11.67;;;9.90;99.90;;;;;;6310727;22;20436;-61
2021/05/27 01:59:11;;;;;;;17.50;13.10;;;9.90;99.90;;;;;;6311392;22;20412;-61
2021/05/27 02:01:38;;;;;;;16.83;13.07;;;9.80;99.90;;;;;;6311109;22;20438;-60
2021/05/27 02:04:05;;;;;;;15.90;14.27;;;9.80;99.90;;;;;;6309819;22;20421;-61
2021/05/27 02:06:32;;;;;;;16.80;14.30;;;9.90;99.90;;;;;;6311216;22;20694;-61
2021/05/27 02:09:09;;;;;;;15.10;13.63;;;9.90;99.90;;;;;;6311140;22;20420;-61
2021/05/27 02:11:40;;;;;;;17.40;13.23;;;9.90;99.90;;;;;;6310748;22;20402;-61
2021/05/27 02:14:09;;;;;;;15.20;13.70;;;9.80;99.90;;;;;;6311366;22;20420;-60
2021/05/27 02:16:37;;;;;;;16.23;14.53;;;9.90;99.90;;;;;;6310826;22;20498;-61
2021/05/27 02:19:09;;;;;;;14.73;13.23;;;9.90;99.90;;;;;;6311081;22;20456;-61
2021/05/27 02:21:37;;;;;;;14.73;13.20;;;9.80;99.90;;;;;;6311383;22;20416;-61
2021/05/27 02:24:06;;;;;;;16.20;14.07;;;9.90;99.90;;;;;;6310968;22;20390;-61
2021/05/27 02:26:33;;;;;;;16.67;13.47;;;9.90;99.90;;;;;;6311007;22;20416;-61
2021/05/27 02:29:00;;;;;;;15.50;14.10;;;9.80;99.90;;;;;;6310660;22;20762;-61
2021/05/27 02:31:28;;;;;;;16.60;14.87;;;9.90;99.90;;;;;;6310596;22;20482;-61
2021/05/27 02:33:55;;;;;;;16.60;15.10;;;9.90;99.90;;;;;;6310932;22;20428;-61
2021/05/27 02:36:23;;;;;;;17.73;15.93;;;9.90;99.90;;;;;;6311356;22;20468;-60
2021/05/27 02:38:50;;;;;;;19.83;16.43;;;9.90;99.90;;;;;;6311071;22;20523;-61
2021/05/27 02:41:17;;;;;;;19.83;17.50;;;9.90;99.90;;;;;;6310496;22;20416;-61
2021/05/27 02:43:51;;;;;;;18.80;16.90;;;9.90;99.90;;;;;;6310869;22;20401;-61
2021/05/27 02:46:18;;;;;;;21.53;18.87;;;9.90;99.90;;;;;;6310692;22;20427;-61
2021/05/27 02:48:46;;;;;;;19.83;17.80;;;9.90;99.90;;;;;;6311280;22;20720;-61
2021/05/27 02:51:13;;;;;;;21.23;19.13;;;9.90;99.90;;;;;;6311139;22;20417;-61
2021/05/27 02:53:40;;;;;;;25.10;19.97;;;9.90;99.90;;;;;;6310611;22;20450;-61
2021/05/27 02:56:06;;;;;;;25.50;20.10;;;9.90;99.90;;;;;;6310661;22;20539;-61
2021/05/27 02:58:33;;;;;;;23.57;21.07;;;9.90;99.90;;;;;;6310411;22;20774;-61
2021/05/27 03:01:00;;;;;;;25.10;22.30;;;9.90;99.90;;;;;;6310795;22;20900;-61
2021/05/27 03:03:26;;;;;;;25.10;22.20;;;9.90;99.90;;;;;;6308210;22;20427;-61
2021/05/27 03:05:54;;;;;;;24.47;22.07;;;9.80;99.90;;;;;;6310144;22;20876;-62
2021/05/27 03:08:21;;;;;;;26.30;21.50;;;9.80;99.90;;;;;;6310200;22;20417;-62
2021/05/27 03:10:47;;;;;;;23.10;20.80;;;9.70;99.90;;;;;;6310866;22;20754;-62
2021/05/27 03:13:14;;;;;;;25.37;22.47;;;9.70;99.90;;;;;;6309897;22;20379;-62
2021/05/27 03:15:41;;;;;;;25.43;22.70;;;9.70;99.90;;;;;;6310647;22;20416;-62
2021/05/27 03:18:08;;;;;;;25.60;21.90;;;9.70;99.90;;;;;;6310056;22;20448;-62
2021/05/27 03:20:36;;;;;;;25.07;22.27;;;9.70;99.90;;;;;;6310931;22;20395;-62
2021/05/27 03:23:06;;;;;;;24.70;21.37;;;9.70;99.90;;;;;;6310311;22;20416;-61
2021/05/27 03:25:34;;;;;;;22.07;19.80;;;9.70;99.90;;;;;;6310380;22;20395;-62
2021/05/27 03:28:03;;;;;;;19.77;17.70;;;9.70;99.90;;;;;;6309976;22;20699;-62
2021/05/27 03:30:33;;;;;;;19.80;17.70;;;9.60;99.90;;;;;;6310911;22;20451;-61
2021/05/27 03:33:02;;;;;;;28.43;18.40;;;9.60;99.90;;;;;;6310781;22;20420;-62
2021/05/27 03:35:28;;;;;;;18.50;16.60;;;9.60;99.90;;;;;;6310123;22;20394;-61
2021/05/27 03:37:55;;;;;;;18.67;16.87;;;9.60;99.90;;;;;;6309957;22;20427;-62
2021/05/27 03:40:24;;;;;;;22.20;17.27;;;9.60;99.90;;;;;;6309776;22;20440;-62
2021/05/27 03:42:53;;;;;;;19.10;17.20;;;9.60;99.90;;;;;;6310633;22;20424;-62
2021/05/27 03:45:22;;;;;;;23.03;18.53;;;9.60;99.90;;;;;;6310279;22;20422;-63
2021/05/27 03:48:12;;;;;;;22.47;19.80;;;9.60;99.90;;;;;;6310564;22;20798;-65
2021/05/27 03:50:41;;;;;;;20.43;18.33;;;9.60;99.90;;;;;;6310389;22;20430;-65
2021/05/27 03:53:10;;;;;;;25.37;21.17;;;9.60;99.90;;;;;;6310269;22;20397;-65
2021/05/27 03:55:38;;;;;;;21.20;18.90;;;9.60;99.90;;;;;;6309949;22;20856;-65
2021/05/27 04:00:41;;;;;;;21.67;19.37;;;9.50;99.90;;;;;;6309841;22;20452;-64
2021/05/27 04:00:51;;;;;;;22.30;19.30;;;9.50;99.90;;;;;;6309170;22;20387;-63
2021/05/27 04:03:22;;;;;;;20.70;18.33;;;9.50;99.90;;;;;;6307831;22;20420;-63
2021/05/27 04:08:35;;;;;;;21.00;17.97;;;9.50;99.90;;;;;;6309858;22;20366;-62
2021/05/27 04:11:03;;;;;;;18.03;16.13;;;9.50;99.90;;;;;;6310936;22;20391;-62
2021/05/27 04:13:29;;;;;;;20.37;16.20;;;9.60;99.90;;;;;;6309853;22;20529;-63
2021/05/27 04:15:56;;;;;;;24.03;17.13;;;9.50;99.90;;;;;;6309698;22;20428;-64
2021/05/27 04:18:22;;;;;;;20.53;18.20;;;9.50;99.90;;;;;;6310016;22;20816;-63
2021/05/27 04:20:51;;;;;;;23.00;18.27;;;9.50;99.90;;;;;;6309799;22;20523;-63
2021/05/27 04:23:32;;;;;;;25.47;18.47;;;9.50;99.90;;;;;;6310036;22;20524;-64
2021/05/27 04:25:59;;;;;;;21.13;18.37;;;9.50;99.90;;;;;;6309784;22;20474;-63
2021/05/27 04:28:27;;;;;;;21.70;17.20;;;9.50;99.90;;;;;;6309957;22;20420;-62
2021/05/27 04:31:09;;;;;;;27.03;18.90;;;9.40;99.90;;;;;;6309683;22;20851;-63
2021/05/27 04:33:53;;;;;;;29.00;20.60;;;9.50;99.90;;;;;;6309966;22;20420;-63
2021/05/27 04:36:20;;;;;;;21.97;19.20;;;9.40;99.90;;;;;;6309877;22;20745;-63
2021/05/27 04:38:48;;;;;;;26.50;19.97;;;9.50;99.90;;;;;;6309797;22;20421;-63
2021/05/27 04:41:17;;;;;;;24.70;19.20;;;9.50;99.90;;;;;;6309845;22;20422;-63
2021/05/27 04:43:46;;;;;;;25.80;20.30;;;9.50;99.90;;;;;;6309865;22;20419;-63
2021/05/27 04:46:13;;;;;;;26.63;18.97;;;9.50;99.90;;;;;;6309939;22;20668;-63
2021/05/27 04:48:40;;;;;;;19.17;17.10;;;9.40;99.90;;;;;;6310193;22;20387;-63
2021/05/27 04:51:06;;;;;;;24.20;16.77;;;9.40;99.90;;;;;;6309416;22;20412;-63
2021/05/27 04:53:33;;;;;;;23.67;16.50;;;9.40;99.90;;;;;;6311773;22;20909;-63
2021/05/27 04:56:00;;;;;;;20.77;17.10;;;9.50;99.90;;;;;;6311459;22;20776;-63
2021/05/27 04:58:29;;;;;;;23.73;19.37;;;9.50;99.90;;;;;;6312223;22;20426;-63
2021/05/27 05:00:57;;;;;;;21.70;16.73;;;9.40;99.90;;;;;;6311836;22;20844;-63
2021/05/27 05:03:24;;;;;;;23.53;15.93;;;9.40;99.90;;;;;;6308069;22;20416;-63
2021/05/27 05:05:51;;;;;;;21.77;16.80;;;9.40;99.90;;;;;;6311246;22;20763;-63
2021/05/27 05:08:17;;;;;;;21.70;15.50;;;9.30;99.90;;;;;;6311392;22;20448;-63
2021/05/27 05:10:44;;;;;;;23.87;18.07;;;9.20;99.90;;;;;;6311117;22;20420;-63
2021/05/27 05:13:15;;;;;;;22.73;17.10;;;9.20;99.90;;;;;;6311736;22;20398;-63
2021/05/27 05:15:43;;;;;;;23.80;19.70;;;9.20;99.90;;;;;;6311497;22;20427;-63
2021/05/27 05:18:18;;;;;;;29.00;20.10;;;9.30;99.90;;;;;;6311257;22;20426;-63
2021/05/27 05:20:45;;;;;;;25.83;19.30;;;9.30;99.90;;;;;;6311838;22;20401;-63
2021/05/27 05:23:13;;;;;;;23.90;18.90;;;9.20;99.90;;;;;;6311877;22;20423;-63
2021/05/27 05:25:41;;;;;;;29.60;20.83;;;9.20;99.90;;;;;;6310902;22;20420;-63
2021/05/27 05:28:12;;;;;;;30.60;21.93;;;9.20;99.90;;;;;;6311261;22;20383;-63
2021/05/27 05:30:41;;;;;;;28.23;22.50;;;9.20;99.90;;;;;;6311884;22;20416;-63
2021/05/27 05:33:11;;;;;;;30.03;24.40;;;9.30;99.90;;;;;;6311442;22;20417;-63
2021/05/27 05:35:39;;;;;;;30.73;23.63;;;9.30;99.90;;;;;;6311291;22;20416;-63
2021/05/27 05:38:06;;;;;;;33.37;24.53;;;9.20;99.90;;;;;;6311161;22;20961;-63
2021/05/27 05:40:33;;;;;;;29.77;23.60;;;9.20;99.90;;;;;;6310702;22;20440;-63
2021/05/27 05:43:03;;;;;;;28.20;23.60;;;9.30;99.90;;;;;;6311062;22;20683;-63
2021/05/27 05:45:33;;;;;;;35.03;24.27;;;9.30;99.90;;;;;;6311006;22;20420;-63
2021/05/27 05:48:00;;;;;;;33.10;23.57;;;9.30;99.90;;;;;;6311470;22;20390;-63
2021/05/27 05:50:46;;;;;;;30.10;23.53;;;9.30;99.90;;;;;;6311085;22;20394;-63
2021/05/27 05:53:15;;;;;;;34.43;25.40;;;9.20;99.90;;;;;;6311592;22;20420;-64
2021/05/27 05:55:45;;;;;;;35.50;24.60;;;9.30;99.90;;;;;;6310992;22;20400;-64
2021/05/27 05:58:12;;;;;;;34.03;24.33;;;9.30;99.90;;;;;;6311702;22;20451;-64
2021/05/27 06:00:38;;;;;;;25.67;21.77;;;9.20;99.90;;;;;;6310596;22;20412;-64
2021/05/27 06:03:08;;;;;;;32.53;25.10;;;9.20;99.90;;;;;;6307758;22;20431;-64
2021/05/27 06:05:35;;;;;;;30.80;24.20;;;9.20;99.90;;;;;;6309614;22;20430;-64
2021/05/27 06:08:01;;;;;;;34.63;22.70;;;9.20;99.90;;;;;;6311517;22;20418;-64
2021/05/27 06:10:32;;;;;;;27.63;22.97;;;9.30;99.90;;;;;;6310765;22;20426;-65
2021/05/27 06:12:59;;;;;;;25.87;21.50;;;9.20;99.90;;;;;;6311598;22;20416;-64
2021/05/27 06:15:27;;;;;;;26.80;21.13;;;9.30;99.90;;;;;;6310939;22;20431;-64
2021/05/27 06:17:53;;;;;;;31.13;21.27;;;9.20;99.90;;;;;;6311742;22;20426;-64
2021/05/27 06:20:27;;;;;;;30.90;20.00;;;9.20;99.90;;;;;;6311092;22;20708;-65
2021/05/27 06:22:55;;;;;;;27.60;22.67;;;9.20;99.90;;;;;;6311297;22;20420;-64
2021/05/27 06:25:28;;;;;;;24.67;20.53;;;9.20;99.90;;;;;;6310679;22;20412;-65
2021/05/27 06:27:56;;;;;;;26.43;19.40;;;9.30;99.90;;;;;;6311825;22;20383;-64
2021/05/27 09:35:09;;;;;;;11.47;10.13;;;9.80;99.90;;;;;;3026505;23;20913;-67
2021/05/27 10:11:40;;;;;;;11.57;9.90;;;10.00;99.90;;;;;;3169894;23;20931;-67
2021/05/27 12:37:47;;;;;;;15.67;13.80;;;10.40;99.90;;;;;;5271479;22;20806;-64
2021/05/27 12:40:24;;;;;;;14.77;13.17;;;10.40;99.90;;;;;;5001078;28;20468;-64
2021/05/27 12:42:51;;;;;;;18.27;14.10;;;10.30;99.90;;;;;;5001466;28;20474;-64
2021/05/27 12:45:39;;;;;;;16.60;14.17;;;10.30;99.90;;;;;;5001562;28;20520;-64
2021/05/27 12:48:14;;;;;;;17.17;15.53;;;10.40;99.90;;;;;;5001064;28;20514;-64
2021/05/27 12:50:44;;;;;;;18.97;14.60;;;10.40;99.90;;;;;;5000822;28;20904;-64
2021/05/27 12:53:29;;;;;;;18.10;15.40;;;10.30;99.90;;;;;;5000846;28;20471;-63
2021/05/27 12:55:57;;;;;;;18.93;15.03;;;10.30;99.90;;;;;;5000460;28;20440;-63
2021/05/27 12:58:30;;;;;;;19.17;16.27;;;10.20;99.90;;;;;;5001018;28;20566;-63
2021/05/27 13:00:57;;;;;;;21.43;17.23;;;10.20;99.90;;;;;;5000384;28;20530;-63
2021/05/27 13:03:28;;;;;;;22.47;18.00;;;10.30;99.90;;;;;;4992756;28;20492;-63
2021/05/27 13:06:09;;;;;;;23.80;18.53;;;10.30;99.90;;;;;;4999076;28;20562;-63
2021/05/27 13:08:43;;;;;;;25.00;18.97;;;10.40;99.90;;;;;;4999878;28;20535;-63
2021/05/27 13:11:35;;;;;;;19.40;17.40;;;10.50;99.90;;;;;;5000569;28;20440;-63
2021/05/27 13:14:13;;;;;;;19.97;17.87;;;10.70;99.90;;;;;;4960184;28;20560;-63
2021/05/27 13:16:45;;;;;;;20.37;17.50;;;10.80;99.90;;;;;;4980957;28;20466;-63
2021/05/27 13:19:14;;;;;;;21.60;18.77;;;10.90;99.90;;;;;;4981162;28;20561;-63
2021/05/27 13:21:46;;;;;;;25.93;18.30;;;11.00;99.90;;;;;;4990168;28;20875;-63
2021/05/27 13:24:23;;;;;;;22.20;17.57;;;11.00;99.90;;;;;;5000079;28;20468;-63
2021/05/27 13:27:01;;;;;;;22.00;18.97;;;11.00;99.90;;;;;;5000104;28;20544;-63
2021/05/27 13:29:44;;;;;;;23.27;17.90;;;10.90;99.90;;;;;;5000541;28;20469;-63
2021/05/27 13:32:21;;;;;;;20.80;17.03;;;10.70;99.90;;;;;;4999958;28;20500;-63
2021/05/27 13:34:48;;;;;;;22.60;17.57;;;10.60;99.90;;;;;;5000424;28;20469;-63
2021/05/27 13:37:16;;;;;;;27.20;19.90;;;10.60;99.90;;;;;;4999571;28;20472;-63
2021/05/27 13:39:47;;;;;;;25.60;20.27;;;10.60;99.90;;;;;;4999755;28;20461;-64
2021/05/27 13:42:13;;;;;;;25.03;19.50;;;10.50;99.90;;;;;;5000315;28;20468;-63
2021/05/27 13:44:43;;;;;;;25.73;21.30;;;10.50;99.90;;;;;;4999902;28;20465;-63
2021/05/27 13:47:10;;;;;;;31.40;20.33;;;10.50;99.90;;;;;;4999734;28;20547;-63
2021/05/27 13:49:38;;;;;;;26.13;19.97;;;10.60;99.90;;;;;;5000127;28;20475;-63
2021/05/27 13:52:05;;;;;;;23.20;19.37;;;10.70;99.90;;;;;;4999571;28;20465;-63
2021/05/27 13:54:32;;;;;;;22.00;18.63;;;10.90;99.90;;;;;;4998393;28;20468;-63
2021/05/27 13:57:02;;;;;;;26.43;18.60;;;10.90;99.90;;;;;;4997888;28;20921;-63
2021/05/27 13:59:28;;;;;;;27.90;18.30;;;11.00;99.90;;;;;;4999445;28;20472;-63
2021/05/27 14:01:57;;;;;;;25.27;18.07;;;11.10;99.90;;;;;;4998321;28;20539;-63
2021/05/27 14:04:24;;;;;;;19.67;16.50;;;11.20;99.90;;;;;;4989306;28;20567;-63
2021/05/27 14:06:50;;;;;;;20.50;17.43;;;11.30;99.90;;;;;;4989940;28;20804;-63
2021/05/27 14:09:17;;;;;;;24.10;16.63;;;11.30;99.90;;;;;;4998490;28;20461;-63
2021/05/27 14:50:00;;;;;;;19.37;13.83;;;12.20;99.90;;;;;;4223167;22;20534;-62
2021/05/27 14:52:26;;;;;;;20.40;13.73;;;12.00;99.90;;;;;;5038606;28;20517;-63
2021/05/27 14:54:53;;;;;;;19.27;15.00;;;11.80;99.90;;;;;;5037794;28;20463;-63
2021/05/27 14:57:20;;;;;;;21.20;15.50;;;11.60;99.90;;;;;;5038388;28;20462;-63
2021/05/27 14:59:49;;;;;;;18.00;16.10;;;11.60;99.90;;;;;;5038025;28;20489;-63
2021/05/27 15:02:15;;;;;;;18.63;14.47;;;11.40;99.90;;;;;;5035289;28;20911;-63
2021/05/27 15:04:42;;;;;;;20.30;15.73;;;11.30;99.90;;;;;;5030393;28;20479;-63
2021/05/27 15:07:12;;;;;;;25.63;15.70;;;11.20;99.90;;;;;;5037318;28;20487;-63
2021/05/27 15:09:39;;;;;;;18.83;14.50;;;11.10;99.90;;;;;;5037452;28;20914;-63
2021/05/27 15:12:12;;;;;;;18.50;15.03;;;11.10;99.90;;;;;;5037536;28;20469;-63
2021/05/27 15:14:43;;;;;;;16.33;14.60;;;11.10;99.90;;;;;;5037921;28;20471;-63
2021/05/27 15:17:10;;;;;;;22.33;16.83;;;11.10;99.90;;;;;;5037427;28;20561;-63
2021/05/27 15:19:37;;;;;;;21.57;16.80;;;11.20;99.90;;;;;;5037609;28;20471;-63
2021/05/27 15:22:06;;;;;;;20.40;15.17;;;11.40;99.90;;;;;;5037265;28;20529;-63
2021/05/27 15:24:33;;;;;;;23.27;15.83;;;11.40;99.90;;;;;;5037835;28;20475;-62
2021/05/27 15:27:00;;;;;;;17.07;14.27;;;11.40;99.90;;;;;;5037700;28;20487;-62
2021/05/27 15:29:27;;;;;;;18.50;13.90;;;11.40;99.90;;;;;;5037473;28;20470;-62
2021/05/27 15:31:53;;;;;;;18.80;14.93;;;11.30;99.90;;;;;;5036891;28;20488;-62
2021/05/27 15:34:20;;;;;;;16.10;14.40;;;11.30;99.90;;;;;;5037673;28;20463;-62
2021/05/27 15:36:47;;;;;;;16.77;14.97;;;11.30;99.90;;;;;;5038787;28;20450;-62
2021/05/27 15:39:19;;;;;;;16.13;14.33;;;11.30;99.90;;;;;;5037550;28;20917;-62
2021/05/27 15:41:49;;;;;;;17.23;14.43;;;11.30;99.90;;;;;;5037499;28;20517;-62
2021/05/27 15:44:15;;;;;;;20.43;13.00;;;11.30;99.90;;;;;;5037286;28;20471;-62
2021/05/27 15:46:42;;;;;;;19.33;12.93;;;11.30;99.90;;;;;;5037478;28;20498;-62
2021/05/27 15:49:08;;;;;;;20.40;13.53;;;11.30;99.90;;;;;;5037874;28;20483;-63
2021/05/27 16:30:57;;;;;;;16.10;11.00;;;11.00;99.90;;;;;;5038092;28;20513;-64
2021/05/27 16:33:24;;;;;;;10.83;7.83;;;11.00;99.90;;;;;;5061632;28;20458;-64
2021/05/27 16:38:32;;;;;;;10.93;8.97;;;10.80;99.90;;;;;;5059872;28;20446;-64
2021/05/27 16:41:01;;;;;;;11.93;8.43;;;10.70;99.90;;;;;;5060737;28;20458;-64
2021/05/27 16:43:29;;;;;;;13.23;8.60;;;10.70;99.90;;;;;;5059583;28;20607;-65
2021/05/27 16:45:57;;;;;;;12.93;7.70;;;10.60;99.90;;;;;;5059432;28;20498;-65
2021/05/27 16:48:24;;;;;;;10.40;7.43;;;10.60;99.90;;;;;;5059780;28;20905;-65
2021/05/27 16:50:51;;;;;;;9.83;8.00;;;10.60;99.90;;;;;;5060393;28;20466;-65
2021/05/27 16:53:20;;;;;;;11.20;7.50;;;10.50;99.90;;;;;;5059820;28;20801;-65
2021/05/27 17:36:06;;;;;;;11.50;7.20;;;10.40;99.90;;;;;;2738742;22;20606;-65
2021/05/27 17:38:39;;;;;;;14.73;7.10;;;10.40;99.90;;;;;;5039655;28;20460;-64
2021/05/27 17:41:05;;;;;;;12.70;8.40;;;10.30;99.90;;;;;;5039450;28;20463;-64
2021/05/27 17:43:34;;;;;;;15.30;7.70;;;10.40;99.90;;;;;;5037988;28;20453;-64
2021/05/27 17:46:00;;;;;;;12.67;8.17;;;10.40;99.90;;;;;;5039615;28;20586;-64
2021/05/27 17:48:32;;;;;;;11.87;9.97;;;10.40;99.90;;;;;;5039023;28;20438;-64
2021/05/27 17:51:05;;;;;;;9.93;8.90;;;10.40;99.90;;;;;;5039603;28;20507;-64
2021/05/27 17:53:32;;;;;;;12.73;10.83;;;10.40;99.90;;;;;;5039139;28;20471;-64
2021/05/27 17:55:59;;;;;;;16.10;10.83;;;10.40;99.90;;;;;;5039696;28;20451;-64
2021/05/27 17:58:26;;;;;;;13.33;11.93;;;10.40;99.90;;;;;;5039891;28;20490;-64
2021/05/27 18:00:53;;;;;;;14.13;12.57;;;10.40;99.90;;;;;;5039672;28;20470;-64
2021/05/27 18:03:22;;;;;;;16.60;13.03;;;10.40;99.90;;;;;;5032582;28;20777;-64
2021/05/27 18:05:49;;;;;;;19.43;13.57;;;10.50;99.90;;;;;;5023891;28;20496;-64
2021/05/27 18:08:19;;;;;;;21.30;14.30;;;10.50;99.90;;;;;;5039669;28;20459;-64
2021/05/27 18:10:49;;;;;;;18.63;13.60;;;10.50;99.90;;;;;;5041179;28;20444;-64
2021/05/27 18:13:18;;;;;;;18.00;13.77;;;10.40;99.90;;;;;;5040752;28;20460;-64
2021/05/27 18:15:45;;;;;;;20.37;13.40;;;10.50;99.90;;;;;;5039951;28;20517;-64
2021/05/27 18:18:12;;;;;;;25.33;16.50;;;10.50;99.90;;;;;;5038746;28;20442;-64
2021/05/27 18:20:42;;;;;;;18.50;14.33;;;10.40;99.90;;;;;;5039074;28;20482;-64
2021/05/27 18:23:11;;;;;;;20.70;16.83;;;10.30;99.90;;;;;;5031494;28;20455;-64
2021/05/27 18:25:45;;;;;;;20.83;16.90;;;10.30;99.90;;;;;;5038176;28;20505;-64
2021/05/27 18:28:12;;;;;;;22.97;17.60;;;10.40;99.90;;;;;;5038141;28;20516;-64
2021/05/27 18:30:39;;;;;;;20.17;17.20;;;10.30;99.90;;;;;;5037838;28;20463;-64
2021/05/27 18:33:05;;;;;;;21.10;17.73;;;10.40;99.90;;;;;;5038947;28;20497;-64
2021/05/27 18:35:32;;;;;;;17.70;15.87;;;10.30;99.90;;;;;;5038361;28;20517;-64
2021/05/27 18:37:59;;;;;;;20.77;17.97;;;10.40;99.90;;;;;;5039005;28;20459;-64
2021/05/27 18:40:25;;;;;;;21.40;15.00;;;10.30;99.90;;;;;;5038315;28;20546;-64
2021/05/27 18:42:53;;;;;;;21.07;15.43;;;10.30;99.90;;;;;;5038600;28;20449;-64
2021/05/27 18:45:21;;;;;;;19.57;16.30;;;10.30;99.90;;;;;;5038871;28;20468;-64
2021/05/27 18:47:51;;;;;;;17.47;15.57;;;10.30;99.90;;;;;;5039245;28;20478;-64
2021/05/27 18:50:23;;;;;;;17.37;14.67;;;10.30;99.90;;;;;;5038223;28;20437;-64
2021/05/27 18:52:50;;;;;;;20.63;14.70;;;10.30;99.90;;;;;;5038824;28;20463;-64
2021/05/27 18:55:19;;;;;;;16.80;13.73;;;10.30;99.90;;;;;;5044466;28;20463;-64
2021/05/27 18:57:47;;;;;;;17.27;12.60;;;10.30;99.90;;;;;;5049530;28;20455;-64
2021/05/27 19:00:18;;;;;;;17.57;13.43;;;10.30;99.90;;;;;;5047211;28;20463;-64
2021/05/27 19:02:44;;;;;;;17.13;13.00;;;10.30;99.90;;;;;;5034051;28;20479;-64
2021/05/27 19:05:12;;;;;;;16.63;12.10;;;10.30;99.90;;;;;;5033141;28;20471;-64
2021/05/27 19:07:41;;;;;;;16.00;11.70;;;10.30;99.90;;;;;;5038133;28;20785;-64
2021/05/27 19:10:13;;;;;;;16.60;11.87;;;10.30;99.90;;;;;;5037569;28;20933;-64
2021/05/27 19:12:40;;;;;;;20.00;12.03;;;10.20;99.90;;;;;;5037780;28;20883;-64
2021/05/27 19:15:09;;;;;;;17.20;13.13;;;10.30;99.90;;;;;;5037714;28;20467;-64
2021/05/27 19:17:37;;;;;;;18.00;12.20;;;10.30;99.90;;;;;;5038285;28;20891;-64
2021/05/27 19:20:08;;;;;;;14.43;11.83;;;10.20;99.90;;;;;;5037293;28;20561;-65
2021/05/27 19:22:35;;;;;;;15.47;12.37;;;10.20;99.90;;;;;;5037531;28;20463;-66
2021/05/27 19:25:07;;;;;;;20.33;12.50;;;10.20;99.90;;;;;;5037465;28;20866;-66
2021/05/27 19:27:34;;;;;;;20.73;12.90;;;10.10;99.90;;;;;;5037854;28;20469;-66
2021/05/27 19:30:04;;;;;;;15.03;12.70;;;10.10;99.90;;;;;;5037706;28;20463;-66
2021/05/27 19:32:34;;;;;;;16.80;13.17;;;10.10;99.90;;;;;;5037386;28;20471;-66
2021/05/27 19:35:06;;;;;;;17.17;13.57;;;10.10;99.90;;;;;;5037730;28;20522;-66
2021/05/27 19:37:33;;;;;;;15.77;11.43;;;10.20;99.90;;;;;;5037215;28;20828;-66
2021/05/27 19:40:02;;;;;;;14.77;12.33;;;10.10;99.90;;;;;;5037426;28;20489;-66
2021/05/27 19:42:31;;;;;;;17.67;14.57;;;10.10;99.90;;;;;;5037766;28;20519;-66
2021/05/27 19:45:03;;;;;;;20.40;15.10;;;10.20;99.90;;;;;;5037333;28;20817;-66
2021/05/27 19:47:36;;;;;;;17.77;14.70;;;10.20;99.90;;;;;;5036839;28;20549;-66
2021/05/27 19:50:05;;;;;;;18.33;13.40;;;10.10;99.90;;;;;;5037457;28;20471;-66
2021/05/27 20:29:29;;;;;;;23.13;14.90;;;10.10;99.90;;;;;;5015903;28;20523;-64
2021/05/27 20:31:58;;;;;;;17.53;15.73;;;10.10;99.90;;;;;;5016796;28;20464;-63
2021/05/27 20:34:28;;;;;;;17.50;15.10;;;10.10;99.90;;;;;;5016405;28;20543;-63
2021/05/27 20:37:01;;;;;;;18.40;16.50;;;10.20;99.90;;;;;;5016221;28;20467;-63
2021/05/27 20:39:28;;;;;;;19.40;17.20;;;10.20;99.90;;;;;;5017597;28;20467;-63
2021/05/27 20:41:55;;;;;;;18.27;16.43;;;10.20;99.90;;;;;;5017800;28;20469;-65
2021/05/27 20:44:28;;;;;;;19.63;17.70;;;10.10;99.90;;;;;;5017742;28;20807;-63
2021/05/27 20:46:57;;;;;;;18.30;16.03;;;10.10;99.90;;;;;;5016547;28;21010;-62
2021/05/27 20:49:24;;;;;;;18.33;16.40;;;10.20;99.90;;;;;;5018123;28;20876;-62
2021/05/27 20:51:50;;;;;;;19.33;17.03;;;10.20;99.90;;;;;;5017813;28;20522;-62
2021/05/27 20:54:19;;;;;;;19.87;17.10;;;10.20;99.90;;;;;;5019816;28;20779;-62
2021/05/27 20:56:46;;;;;;;21.53;17.47;;;10.20;99.90;;;;;;5020730;28;20501;-62
2021/05/27 20:59:13;;;;;;;18.90;16.87;;;10.20;99.90;;;;;;5021062;28;20464;-62
2021/05/27 21:01:40;;;;;;;18.50;16.60;;;10.20;99.90;;;;;;5020731;28;20468;-62
2021/05/27 21:04:08;;;;;;;19.73;16.20;;;10.20;99.90;;;;;;5011393;28;20529;-63
2021/05/27 21:06:34;;;;;;;18.87;16.37;;;10.20;99.90;;;;;;5019950;28;21009;-62
2021/05/27 21:09:01;;;;;;;19.97;17.20;;;10.30;99.90;;;;;;5019495;28;20460;-62
2021/05/27 21:11:28;;;;;;;18.80;17.00;;;10.20;99.90;;;;;;5020864;28;20502;-62
2021/05/27 21:13:54;;;;;;;18.97;17.17;;;10.10;99.90;;;;;;5019738;28;20439;-62
2021/05/27 21:16:21;;;;;;;19.90;17.63;;;10.20;99.90;;;;;;5020081;28;20761;-62
2021/05/27 21:18:49;;;;;;;18.33;16.60;;;10.20;99.90;;;;;;5020098;28;20463;-62
2021/05/27 21:21:19;;;;;;;18.97;16.60;;;10.20;99.90;;;;;;5020226;28;20442;-63
2021/05/27 21:23:46;;;;;;;19.53;16.53;;;10.20;99.90;;;;;;5020021;28;20495;-63
2021/05/27 21:26:12;;;;;;;20.23;16.30;;;10.20;99.90;;;;;;5019824;28;20478;-62
2021/05/27 21:28:39;;;;;;;20.53;16.80;;;10.20;99.90;;;;;;5019527;28;20496;-62
2021/05/27 21:31:08;;;;;;;19.50;16.00;;;10.20;99.90;;;;;;5020061;28;20808;-62
2021/05/27 21:33:35;;;;;;;19.90;15.50;;;10.20;99.90;;;;;;5019758;28;20518;-62
2021/05/27 21:36:04;;;;;;;19.20;15.47;;;10.20;99.90;;;;;;5019683;28;20868;-62
2021/05/27 21:38:34;;;;;;;19.53;16.57;;;10.10;99.90;;;;;;5019679;28;20782;-62
2021/05/27 21:41:00;;;;;;;16.60;14.90;;;10.10;99.90;;;;;;5019854;28;20470;-62
2021/05/27 21:43:27;;;;;;;18.10;14.53;;;10.10;99.90;;;;;;5019547;28;20774;-62
2021/05/27 21:45:54;;;;;;;15.97;14.17;;;10.10;99.90;;;;;;5019537;28;20471;-62
2021/05/27 21:48:20;;;;;;;23.53;15.77;;;10.10;99.90;;;;;;5019529;28;20499;-62
2021/05/27 21:50:50;;;;;;;21.20;15.03;;;10.10;99.90;;;;;;5018888;28;20470;-62
2021/05/27 21:53:17;;;;;;;20.20;14.33;;;10.10;99.90;;;;;;5019611;28;20519;-62
2021/05/27 21:55:51;;;;;;;15.17;13.57;;;10.00;99.90;;;;;;5019963;28;20464;-62
2021/05/27 21:58:18;;;;;;;15.43;13.47;;;10.00;99.90;;;;;;5019489;28;20780;-62